Airfield :
LOGIN :

Register | Disclaimer

   EN    FR    IT 

 










Legend :    VFR   Marginal VFR   IFR   Intensive IFR   Very Intensive IFR
Visi :
Ceiling :
>= 8 km
>= 3000ft
5 to 8 km
1000 to 3000 ft
1500m to 5 km
500 to 1000 ft
800 to 1500m
200 to 500 ft
< 800m
< 200 ft
Symbols :   Thunderstorms  Fog  Heavy snow  Heavy precipitations  Wind > 20 kt
SIGMETs :     Misc.  Thunderstorms  Icing  Turbulence  Mountain Waves  Volcanic Ashes






- Airport Elevation : 327 ft
- IATA code : BHX


EGBB - Birmingham

CURRENT METAR :
  • 161420Z 29008KT 9999 OVC033 09/04 Q1014

EXPIRED METARs :
  • 161350Z 29010KT 9999 SCT028 BKN033 09/04 Q1014
  • 161320Z 30008KT 9999 SCT024 BKN036 09/04 Q1014
  • 161250Z 30009KT 9999 FEW020 BKN036 09/05 Q1014
  • 161220Z 28007KT 260V320 9999 FEW035 08/05 Q1014
  • 161150Z 29007KT 9999 FEW026 08/05 Q1015

TAF TAF EGBB
Valid from the 16 at 12:00 until the 17 at 12:00 UTC


161103Z 1612/1712 27006KT 9999 BKN014
BECMG 1612/1614 SCT035
PROB30
TEMPO 1702/1708 7000 SHRA BKN012
ATIS : +44 121 780 0910



MET'MAP, your aeronautical weather chart ! - Copyright ORBIFLY December 2007 - Disclaimer

ORBIFLY MET'MAP TEAM :

Programming & Development : Alexandra Zaïnal
Concept & original design : Baudouin d'Aumeries
Assistance for programming : Marc-Olivier Méhu
Technical & hardware support : Manuel Goepfert

Contact : metmap@orbifly.com




SOURCES & CREDITS :

   NOAA